createdAt,value
2017-03-18T00:00:19.792Z,1003.53
2017-03-18T00:01:29.033Z,1003.41
2017-03-18T00:02:37.920Z,1003.35
2017-03-18T00:03:47.936Z,1003.49
2017-03-18T00:04:57.472Z,1003.31
2017-03-18T00:06:06.681Z,1003.32
2017-03-18T00:07:15.565Z,1003.4
2017-03-18T00:08:25.101Z,1003.23
2017-03-18T00:09:35.539Z,1003.26
2017-03-18T00:10:45.405Z,1003.4
2017-03-18T00:11:54.617Z,1003.22
2017-03-18T00:13:03.827Z,1003.23
2017-03-18T00:14:13.691Z,1003.02
2017-03-18T00:15:23.713Z,1003.04
2017-03-18T00:16:32.928Z,1003.03
2017-03-18T00:17:42.138Z,1002.97
2017-03-18T00:18:51.681Z,1002.94
2017-03-18T00:20:01.228Z,1002.95
2017-03-18T00:21:10.412Z,1002.95
2017-03-18T00:22:19.631Z,1002.95
2017-03-18T00:23:28.853Z,1002.88
2017-03-18T00:24:38.393Z,1002.85
2017-03-18T00:25:47.604Z,1002.83
2017-03-18T00:26:56.548Z,1002.83
2017-03-18T00:28:05.761Z,1002.8
2017-03-18T00:29:15.626Z,1002.79
2017-03-18T00:30:25.492Z,1002.7
2017-03-18T00:31:35.027Z,1002.77
2017-03-18T00:32:44.067Z,1002.82
2017-03-18T00:33:53.937Z,1002.6
2017-03-18T00:35:04.165Z,1002.58
2017-03-18T00:36:13.704Z,1002.49
2017-03-18T00:37:23.242Z,1002.46
2017-03-18T00:38:33.270Z,1002.46
2017-03-18T00:39:43.139Z,1002.41
2017-03-18T00:40:52.354Z,1002.36
2017-03-18T00:42:01.893Z,1002.41
2017-03-18T00:43:11.109Z,1002.3
2017-03-18T00:44:21.349Z,1002.24
2017-03-18T00:45:31.214Z,1002.06
2017-03-18T00:46:40.429Z,1001.95
2017-03-18T00:47:49.640Z,1001.82
2017-03-18T00:48:58.534Z,1001.71
2017-03-18T00:50:08.406Z,1001.79
2017-03-18T00:51:17.621Z,1001.76
2017-03-18T00:52:26.503Z,1001.72
2017-03-18T00:53:35.715Z,1001.65
2017-03-18T00:54:45.907Z,1001.7
2017-03-18T00:55:55.824Z,1001.65
2017-03-18T00:57:05.359Z,1001.6
2017-03-18T00:58:14.895Z,1001.53
2017-03-18T00:59:25.088Z,1001.51
2017-03-18T01:00:34.948Z,1001.55
2017-03-18T01:01:44.232Z,1001.62
2017-03-18T01:02:53.444Z,1001.49
2017-03-18T01:04:03.304Z,1001.44
2017-03-18T01:05:12.519Z,1001.47
2017-03-18T01:06:22.060Z,1001.41
2017-03-18T01:07:31.424Z,1001.37
2017-03-18T01:08:41.302Z,1001.33
2017-03-18T01:09:50.523Z,1001.27
2017-03-18T01:11:00.391Z,1001.2
2017-03-18T01:12:09.605Z,1001.23
2017-03-18T01:13:19.219Z,1001.31
2017-03-18T01:14:29.093Z,1001.18
2017-03-18T01:15:38.310Z,1001.34
2017-03-18T01:16:47.521Z,1001.14
2017-03-18T01:17:56.409Z,1001.06
2017-03-18T01:19:05.827Z,1001.01
2017-03-18T01:20:15.367Z,1000.97
2017-03-18T01:21:24.601Z,1000.94
2017-03-18T01:22:33.821Z,1000.89
2017-03-18T01:23:43.685Z,1000.89
2017-03-18T01:24:53.384Z,1000.79
2017-03-18T01:26:02.922Z,1000.84
2017-03-18T01:27:11.808Z,1000.68
2017-03-18T01:28:21.348Z,1000.63
2017-03-18T01:29:31.136Z,1000.66
2017-03-18T01:30:40.530Z,1000.6
2017-03-18T01:31:49.742Z,1000.6
2017-03-18T01:32:59.274Z,1000.48
2017-03-18T01:34:08.819Z,1000.37
2017-03-18T01:35:19.020Z,1000.25
2017-03-18T01:36:28.381Z,1000.34
2017-03-18T01:37:37.272Z,1000.12
2017-03-18T01:38:47.139Z,1000.13
2017-03-18T01:39:57.332Z,1000.08
2017-03-18T01:41:06.869Z,1000.1
2017-03-18T01:42:16.235Z,999.97
2017-03-18T01:43:26.419Z,999.97
2017-03-18T01:44:35.958Z,999.86
2017-03-18T01:45:45.497Z,999.81
2017-03-18T01:46:54.386Z,999.84
2017-03-18T01:48:04.078Z,999.7
2017-03-18T01:49:14.591Z,999.6
2017-03-18T01:50:24.777Z,999.64
2017-03-18T01:51:34.000Z,999.56
2017-03-18T01:52:43.221Z,999.51
2017-03-18T01:53:53.332Z,999.59
2017-03-18T01:55:03.195Z,999.45
2017-03-18T01:56:12.406Z,999.5
2017-03-18T01:57:22.265Z,999.4
2017-03-18T01:58:32.130Z,999.41
2017-03-18T01:59:42.997Z,999.29
2017-03-18T02:00:53.187Z,999.25
2017-03-18T02:02:02.744Z,999.18
2017-03-18T02:03:12.613Z,999.13
2017-03-18T02:04:22.520Z,999.13
2017-03-18T02:05:32.316Z,999.14
2017-03-18T02:06:41.526Z,999.07
2017-03-18T02:07:50.740Z,999.01
2017-03-18T02:09:00.928Z,998.99
2017-03-18T02:10:11.120Z,998.92
2017-03-18T02:11:21.096Z,998.82
2017-03-18T02:12:30.640Z,998.83
2017-03-18T02:13:40.834Z,998.84
2017-03-18T02:14:50.702Z,998.78
2017-03-18T02:16:00.573Z,998.79
2017-03-18T02:17:09.510Z,998.86
2017-03-18T02:18:18.399Z,998.72
2017-03-18T02:19:27.611Z,998.61
2017-03-18T02:20:36.820Z,998.62
2017-03-18T02:21:45.709Z,998.54
2017-03-18T02:22:55.494Z,998.66
2017-03-18T02:24:05.357Z,998.48
2017-03-18T02:25:14.902Z,998.54
2017-03-18T02:26:23.798Z,998.41
2017-03-18T02:27:33.004Z,998.39
2017-03-18T02:28:43.257Z,998.33
2017-03-18T02:29:53.446Z,998.24
2017-03-18T02:31:03.313Z,998.25
2017-03-18T02:32:12.845Z,998.1
2017-03-18T02:33:22.061Z,998.06
2017-03-18T02:34:31.621Z,998.04
2017-03-18T02:35:40.866Z,997.97
2017-03-18T02:36:50.079Z,997.99
2017-03-18T02:37:59.614Z,997.83
2017-03-18T02:39:09.484Z,997.78
2017-03-18T02:40:19.190Z,997.69
2017-03-18T02:41:28.420Z,997.7
2017-03-18T02:42:37.957Z,997.74
2017-03-18T02:43:48.153Z,997.73
2017-03-18T02:44:58.353Z,997.62
2017-03-18T02:46:07.391Z,997.5
2017-03-18T02:47:16.274Z,997.45
2017-03-18T02:48:25.485Z,997.37
2017-03-18T02:49:34.702Z,997.31
2017-03-18T02:50:43.912Z,997.22
2017-03-18T02:51:53.045Z,997.2
2017-03-18T02:53:02.926Z,997.2
2017-03-18T02:54:13.111Z,997.15
2017-03-18T02:55:22.647Z,997.09
2017-03-18T02:56:31.857Z,997.03
2017-03-18T02:57:41.217Z,997.05
2017-03-18T02:58:51.077Z,997.1
2017-03-18T03:00:00.943Z,996.98
2017-03-18T03:01:10.489Z,997
2017-03-18T03:02:19.707Z,996.95
2017-03-18T03:03:29.292Z,996.71
2017-03-18T03:04:39.160Z,996.75
2017-03-18T03:05:48.384Z,996.67
2017-03-18T03:06:57.275Z,996.63
2017-03-18T03:08:06.487Z,996.63
2017-03-18T03:09:16.553Z,996.66
2017-03-18T03:10:26.416Z,996.65
2017-03-18T03:11:35.300Z,996.75
2017-03-18T03:12:44.837Z,996.68
2017-03-18T03:13:54.710Z,996.74
2017-03-18T03:15:05.275Z,996.74
2017-03-18T03:16:15.140Z,996.69
2017-03-18T03:17:24.356Z,996.68
2017-03-18T03:18:34.542Z,996.71
2017-03-18T03:19:43.757Z,996.58
2017-03-18T03:20:53.683Z,996.5
2017-03-18T03:22:02.575Z,996.59
2017-03-18T03:23:11.786Z,996.54
2017-03-18T03:24:21.324Z,996.64
2017-03-18T03:25:30.863Z,996.6
2017-03-18T03:26:40.180Z,996.67
2017-03-18T03:27:49.720Z,996.57
2017-03-18T03:28:58.935Z,996.57
2017-03-18T03:30:09.132Z,996.56
2017-03-18T03:31:18.667Z,996.46
2017-03-18T03:32:28.130Z,996.42
2017-03-18T03:33:38.002Z,996.39
2017-03-18T03:34:47.869Z,996.41
2017-03-18T03:35:57.734Z,996.34
2017-03-18T03:37:06.944Z,996.34
2017-03-18T03:38:16.735Z,996.39
2017-03-18T03:39:26.929Z,996.37
2017-03-18T03:40:35.847Z,996.33
2017-03-18T03:41:45.710Z,996.41
2017-03-18T03:42:55.247Z,996.34
2017-03-18T03:44:04.838Z,996.24
2017-03-18T03:45:14.698Z,996.56
2017-03-18T03:46:24.234Z,996.3
2017-03-18T03:47:33.773Z,996.32
2017-03-18T03:48:43.646Z,996.3
2017-03-18T03:49:53.890Z,996.18
2017-03-18T03:51:04.081Z,996.46
2017-03-18T03:52:13.621Z,996.34
2017-03-18T03:53:22.830Z,996.34
2017-03-18T03:54:33.025Z,996.18
2017-03-18T03:55:42.288Z,996.13
2017-03-18T03:56:51.176Z,996.09
2017-03-18T03:58:00.390Z,996.09
2017-03-18T03:59:10.271Z,996.09
2017-03-18T04:00:20.136Z,996.17
2017-03-18T04:01:29.829Z,996.12
2017-03-18T04:02:38.720Z,996.25
2017-03-18T04:03:48.593Z,996.13
2017-03-18T04:04:58.790Z,995.98
2017-03-18T04:06:08.652Z,996.04
2017-03-18T04:07:18.338Z,996.13
2017-03-18T04:08:27.886Z,995.94
2017-03-18T04:09:38.402Z,995.84
2017-03-18T04:10:47.656Z,995.95
2017-03-18T04:11:56.546Z,995.94
2017-03-18T04:13:06.273Z,995.88
2017-03-18T04:14:16.500Z,995.84
2017-03-18T04:15:27.020Z,995.8
2017-03-18T04:16:36.885Z,995.97
2017-03-18T04:17:46.097Z,995.81
2017-03-18T04:18:56.764Z,995.71
2017-03-18T04:20:07.283Z,995.89
2017-03-18T04:21:16.818Z,995.82
2017-03-18T04:22:25.705Z,995.65
2017-03-18T04:23:35.242Z,995.62
2017-03-18T04:24:45.486Z,995.67
2017-03-18T04:25:54.706Z,995.71
2017-03-18T04:27:04.248Z,995.63
2017-03-18T04:28:13.782Z,995.67
2017-03-18T04:29:22.999Z,995.7
2017-03-18T04:30:33.337Z,995.65
2017-03-18T04:31:42.550Z,995.63
2017-03-18T04:32:52.112Z,995.62
2017-03-18T04:34:01.330Z,995.69
2017-03-18T04:35:11.519Z,995.54
2017-03-18T04:36:21.055Z,995.47
2017-03-18T04:37:30.594Z,995.52
2017-03-18T04:38:40.460Z,995.55
2017-03-18T04:39:50.652Z,995.54
2017-03-18T04:41:00.524Z,995.53
2017-03-18T04:42:09.785Z,995.52
2017-03-18T04:43:19.332Z,995.45
2017-03-18T04:44:29.526Z,995.42
2017-03-18T04:45:38.736Z,995.44
2017-03-18T04:46:47.951Z,995.39
2017-03-18T04:47:57.867Z,995.31
2017-03-18T04:49:07.732Z,995.36
2017-03-18T04:50:17.601Z,995.31
2017-03-18T04:51:26.487Z,995.34
2017-03-18T04:52:35.379Z,995.4
2017-03-18T04:53:45.073Z,995.32
2017-03-18T04:54:55.263Z,995.25
2017-03-18T04:56:05.136Z,995.4
2017-03-18T04:57:14.349Z,995.37
2017-03-18T04:58:23.233Z,995.33
2017-03-18T04:59:33.156Z,995.35
2017-03-18T05:00:42.701Z,995.35
2017-03-18T05:01:51.915Z,995.31
2017-03-18T05:03:01.458Z,995.26
2017-03-18T05:04:11.325Z,995.34
2017-03-18T05:05:21.731Z,995.31
2017-03-18T05:06:30.945Z,995.46
2017-03-18T05:07:41.140Z,995.39
2017-03-18T05:08:50.679Z,995.44
2017-03-18T05:10:00.883Z,995.4
2017-03-18T05:11:11.226Z,995.42
2017-03-18T05:12:20.761Z,995.55
2017-03-18T05:13:29.969Z,995.54
2017-03-18T05:14:40.168Z,995.42
2017-03-18T05:15:50.374Z,995.42
2017-03-18T05:16:59.656Z,995.38
2017-03-18T05:18:08.554Z,995.37
2017-03-18T05:19:18.421Z,995.36
2017-03-18T05:20:28.619Z,995.35
2017-03-18T05:21:37.509Z,995.34
2017-03-18T05:22:46.873Z,995.33
2017-03-18T05:23:57.398Z,995.29
2017-03-18T05:25:07.592Z,995.23
2017-03-18T05:26:16.809Z,995.33
2017-03-18T05:27:26.021Z,995.32
2017-03-18T05:28:35.435Z,995.36
2017-03-18T05:29:44.972Z,995.36
2017-03-18T05:30:55.487Z,995.33
2017-03-18T05:32:04.699Z,995.31
2017-03-18T05:33:14.241Z,995.3
2017-03-18T05:34:24.262Z,995.34
2017-03-18T05:35:33.802Z,995.35
2017-03-18T05:36:42.719Z,995.42
2017-03-18T05:37:51.609Z,995.39
2017-03-18T05:39:02.126Z,995.33
2017-03-18T05:40:12.466Z,995.42
2017-03-18T05:41:21.677Z,995.38
2017-03-18T05:42:30.571Z,995.34
2017-03-18T05:43:40.441Z,995.33
2017-03-18T05:44:50.661Z,995.35
2017-03-18T05:46:00.835Z,995.43
2017-03-18T05:47:10.050Z,995.38
2017-03-18T05:48:19.919Z,995.45
2017-03-18T05:49:30.108Z,995.46
2017-03-18T05:50:39.322Z,995.36
2017-03-18T05:51:49.015Z,995.33
2017-03-18T05:52:58.231Z,995.4
2017-03-18T05:54:08.421Z,995.49
2017-03-18T05:55:18.283Z,995.59
2017-03-18T05:56:27.494Z,995.53
2017-03-18T05:57:36.957Z,995.69
2017-03-18T05:58:47.154Z,995.75
2017-03-18T05:59:57.019Z,995.66
2017-03-18T06:01:06.565Z,995.73
2017-03-18T06:02:16.112Z,995.7
2017-03-18T06:03:25.632Z,995.77
2017-03-18T06:04:36.187Z,995.77
2017-03-18T06:05:45.742Z,995.7
2017-03-18T06:06:54.630Z,995.72
2017-03-18T06:08:04.169Z,995.83
2017-03-18T06:09:13.813Z,995.94
2017-03-18T06:10:23.367Z,995.99
2017-03-18T06:11:33.232Z,996.07
2017-03-18T06:12:42.444Z,995.94
2017-03-18T06:13:52.965Z,996.18
2017-03-18T06:15:02.608Z,995.97
2017-03-18T06:16:11.500Z,996.09
2017-03-18T06:17:20.715Z,996.11
2017-03-18T06:18:29.608Z,996.1
2017-03-18T06:19:39.153Z,996.21
2017-03-18T06:20:48.774Z,996.23
2017-03-18T06:21:57.987Z,996.19
2017-03-18T06:23:07.527Z,996.32
2017-03-18T06:24:17.072Z,996.21
2017-03-18T06:25:27.268Z,996.06
2017-03-18T06:26:36.306Z,996.2
2017-03-18T06:27:45.196Z,996.09
2017-03-18T06:28:55.391Z,996.19
2017-03-18T06:30:05.256Z,996.04
2017-03-18T06:31:14.794Z,996.1
2017-03-18T06:32:24.907Z,996.06
2017-03-18T06:33:34.124Z,996.26
2017-03-18T06:34:44.035Z,996.04
2017-03-18T06:35:53.944Z,996.07
2017-03-18T06:37:03.174Z,995.97
2017-03-18T06:38:13.389Z,996.02
2017-03-18T06:39:24.064Z,996.11
2017-03-18T06:40:33.614Z,995.95
2017-03-18T06:41:42.890Z,996.04
2017-03-18T06:42:52.106Z,996.17
2017-03-18T06:44:02.790Z,996.24
2017-03-18T06:45:12.337Z,996.16
2017-03-18T06:46:21.978Z,996.04
2017-03-18T06:47:31.888Z,996.23
2017-03-18T06:48:41.107Z,996.13
2017-03-18T06:49:50.815Z,996.22
2017-03-18T06:51:00.359Z,996.27
2017-03-18T06:52:09.573Z,996.62
2017-03-18T06:53:19.117Z,996.25
2017-03-18T06:54:28.662Z,996.35
2017-03-18T06:55:38.251Z,996.2
2017-03-18T06:56:47.840Z,996.22
2017-03-18T06:57:57.381Z,996.53
2017-03-18T06:59:07.264Z,996.5
2017-03-18T07:00:16.802Z,996.53
2017-03-18T07:01:26.103Z,996.46
2017-03-18T07:02:36.002Z,996.46
2017-03-18T07:03:45.929Z,996.56
2017-03-18T07:04:55.829Z,996.59
2017-03-18T07:06:04.723Z,996.63
2017-03-18T07:07:13.771Z,996.63
2017-03-18T07:08:22.658Z,996.77
2017-03-18T07:09:31.878Z,996.69
2017-03-18T07:10:41.098Z,996.83
2017-03-18T07:11:49.995Z,996.71
2017-03-18T07:12:59.362Z,996.93
2017-03-18T07:14:09.607Z,996.67
2017-03-18T07:15:19.476Z,996.7
2017-03-18T07:16:29.662Z,996.8
2017-03-18T07:17:39.204Z,996.82
2017-03-18T07:18:49.651Z,997.06
2017-03-18T07:19:59.851Z,996.76
2017-03-18T07:21:09.069Z,996.92
2017-03-18T07:22:18.288Z,997.18
2017-03-18T07:23:27.504Z,996.99
2017-03-18T07:24:37.749Z,997.06
2017-03-18T07:25:46.970Z,997.16
2017-03-18T07:26:56.187Z,996.96
2017-03-18T07:28:05.402Z,997.41
2017-03-18T07:29:15.919Z,997.12
2017-03-18T07:30:26.417Z,997.15
2017-03-18T07:31:35.965Z,997.11
2017-03-18T07:32:45.186Z,997.14
2017-03-18T07:33:55.385Z,997.04
2017-03-18T07:35:05.256Z,997.24
2017-03-18T07:36:14.619Z,997.14
2017-03-18T07:37:24.161Z,997.2
2017-03-18T07:38:33.704Z,997.17
2017-03-18T07:39:43.899Z,997.18
2017-03-18T07:40:53.766Z,997.36
2017-03-18T07:42:02.805Z,997.24
2017-03-18T07:43:12.353Z,997.36
2017-03-18T07:44:22.872Z,997.28
2017-03-18T07:45:32.093Z,997.21
2017-03-18T07:46:41.308Z,997.39
2017-03-18T07:47:50.778Z,997.49
2017-03-18T07:49:00.001Z,997.48
2017-03-18T07:50:10.196Z,997.55
2017-03-18T07:51:19.735Z,997.36
2017-03-18T07:52:28.976Z,997.52
2017-03-18T07:53:38.444Z,997.53
2017-03-18T07:54:48.314Z,997.53
2017-03-18T07:55:57.857Z,997.52
2017-03-18T07:57:07.075Z,997.65
2017-03-18T07:58:16.612Z,997.57
2017-03-18T07:59:27.107Z,997.63
2017-03-18T08:00:36.324Z,997.49
2017-03-18T08:01:45.534Z,997.75
2017-03-18T08:02:55.080Z,997.76
2017-03-18T08:04:05.277Z,998.17
2017-03-18T08:05:15.177Z,997.81
2017-03-18T08:06:24.068Z,997.84
2017-03-18T08:07:32.968Z,997.95
2017-03-18T08:08:42.841Z,998.03
2017-03-18T08:09:53.038Z,997.9
2017-03-18T08:11:03.113Z,997.97
2017-03-18T08:12:12.012Z,998.18
2017-03-18T08:13:21.554Z,998.21
2017-03-18T08:14:31.420Z,998.12
2017-03-18T08:15:40.307Z,998.31
2017-03-18T08:16:49.523Z,998.2
2017-03-18T08:17:58.740Z,998.27
2017-03-18T08:19:08.939Z,998.41
2017-03-18T08:20:18.484Z,998.35
2017-03-18T08:21:27.373Z,998.65
2017-03-18T08:22:36.909Z,998.45
2017-03-18T08:23:47.110Z,998.57
2017-03-18T08:24:56.979Z,998.56
2017-03-18T08:26:06.523Z,998.53
2017-03-18T08:27:15.417Z,998.54
2017-03-18T08:28:24.890Z,998.55
2017-03-18T08:29:34.768Z,998.75
2017-03-18T08:30:44.638Z,998.72
2017-03-18T08:31:53.852Z,998.68
2017-03-18T08:33:03.720Z,998.76
2017-03-18T08:34:13.514Z,998.89
2017-03-18T08:35:22.733Z,998.9
2017-03-18T08:36:31.941Z,998.84
2017-03-18T08:37:40.860Z,998.91
2017-03-18T08:38:50.411Z,998.91
2017-03-18T08:40:00.006Z,999.15
2017-03-18T08:41:09.223Z,999.04
2017-03-18T08:42:18.443Z,999.11
2017-03-18T08:43:28.366Z,999.2
2017-03-18T08:44:37.584Z,999.14
2017-03-18T08:45:47.184Z,999.46
2017-03-18T08:46:56.407Z,999.24
2017-03-18T08:48:05.953Z,999.39
2017-03-18T08:49:15.167Z,999.5
2017-03-18T08:50:25.364Z,999.59
2017-03-18T08:51:34.729Z,999.81
2017-03-18T08:52:43.943Z,999.65
2017-03-18T08:53:53.816Z,999.61
2017-03-18T08:55:03.751Z,999.8
2017-03-18T08:56:13.297Z,999.93
2017-03-18T08:57:22.339Z,999.8
2017-03-18T08:58:31.561Z,999.84
2017-03-18T08:59:41.430Z,999.77
2017-03-18T09:00:50.648Z,999.91
2017-03-18T09:01:59.540Z,1000.04
2017-03-18T09:03:08.584Z,999.75
2017-03-18T09:04:18.128Z,1000.01
2017-03-18T09:05:27.671Z,1000.03
2017-03-18T09:06:37.859Z,1000.26
2017-03-18T09:07:47.077Z,1000.19
2017-03-18T09:08:56.680Z,1000.1
2017-03-18T09:10:06.875Z,1000.18
2017-03-18T09:11:16.421Z,1000.21
2017-03-18T09:12:25.634Z,1000.4
2017-03-18T09:13:35.184Z,1000.24
2017-03-18T09:14:44.555Z,1000.3
2017-03-18T09:15:54.426Z,1000.32
2017-03-18T09:17:03.644Z,1000.38
2017-03-18T09:18:12.536Z,1000.3
2017-03-18T09:19:22.414Z,1000.37
2017-03-18T09:20:31.542Z,1000.45
2017-03-18T09:21:40.440Z,1000.44
2017-03-18T09:22:49.661Z,1000.41
2017-03-18T09:23:59.541Z,1000.5
2017-03-18T09:25:08.760Z,1000.53
2017-03-18T09:26:18.310Z,1000.5
2017-03-18T09:27:27.530Z,1000.55
2017-03-18T09:28:37.080Z,1000.69
2017-03-18T09:29:46.626Z,1000.8
2017-03-18T09:30:56.170Z,1000.77
2017-03-18T09:32:05.060Z,1000.82
2017-03-18T09:33:13.955Z,1000.96
2017-03-18T09:34:24.152Z,1000.94
2017-03-18T09:35:33.369Z,1000.81
2017-03-18T09:36:42.905Z,1000.95
2017-03-18T09:37:51.846Z,1000.84
2017-03-18T09:39:01.715Z,1000.86
2017-03-18T09:40:11.261Z,1000.8
2017-03-18T09:41:20.804Z,1000.65
2017-03-18T09:42:29.694Z,1001.04
2017-03-18T09:43:39.237Z,1001.08
2017-03-18T09:44:49.145Z,1001.17
2017-03-18T09:45:59.351Z,1001.12
2017-03-18T09:47:08.249Z,1001.09
2017-03-18T09:48:17.468Z,1001.14
2017-03-18T09:49:27.366Z,1001.22
2017-03-18T09:50:36.579Z,1001.21
2017-03-18T09:51:45.577Z,1001.28
2017-03-18T09:52:55.120Z,1001.4
2017-03-18T09:54:04.989Z,1001.28
2017-03-18T09:55:14.536Z,1001.32
2017-03-18T09:56:23.430Z,1001.39
2017-03-18T09:57:32.897Z,1001.44
2017-03-18T09:58:42.121Z,1001.62
2017-03-18T09:59:52.641Z,1001.5
2017-03-18T10:01:02.191Z,1001.39
2017-03-18T10:02:11.089Z,1001.57
2017-03-18T10:03:20.042Z,1001.56
2017-03-18T10:04:29.944Z,1001.55
2017-03-18T10:05:39.819Z,1001.59
2017-03-18T10:06:48.709Z,1001.68
2017-03-18T10:07:58.585Z,1001.71
2017-03-18T10:09:07.858Z,1001.66
2017-03-18T10:10:17.726Z,1001.78
2017-03-18T10:11:26.940Z,1001.75
2017-03-18T10:12:35.831Z,1001.71
2017-03-18T10:13:46.374Z,1001.82
2017-03-18T10:14:56.490Z,1001.81
2017-03-18T10:16:06.686Z,1001.76
2017-03-18T10:17:15.587Z,1001.69
2017-03-18T10:18:24.477Z,1001.82
2017-03-18T10:19:33.366Z,1001.69
2017-03-18T10:20:43.063Z,1001.67
2017-03-18T10:21:51.954Z,1001.71
2017-03-18T10:23:00.843Z,1001.76
2017-03-18T10:24:10.388Z,1001.86
2017-03-18T10:25:19.941Z,1001.87
2017-03-18T10:26:29.534Z,1001.86
2017-03-18T10:27:38.791Z,1001.96
2017-03-18T10:28:47.684Z,1001.99
2017-03-18T10:29:57.287Z,1002.06
2017-03-18T10:31:06.185Z,1002.03
2017-03-18T10:32:15.878Z,1002
2017-03-18T10:33:25.756Z,1001.97
2017-03-18T10:34:34.980Z,1002.11
2017-03-18T10:35:44.196Z,1002.15
2017-03-18T10:36:53.740Z,1002.08
2017-03-18T10:38:03.105Z,1002.17
2017-03-18T10:39:13.345Z,1002.15
2017-03-18T10:40:23.213Z,1002.23
2017-03-18T10:41:32.430Z,1002.45
2017-03-18T10:42:41.321Z,1002.31
2017-03-18T10:43:51.017Z,1002.26
2017-03-18T10:44:59.914Z,1002.41
2017-03-18T10:46:09.131Z,1002.43
2017-03-18T10:47:18.354Z,1002.37
2017-03-18T10:48:27.583Z,1002.46
2017-03-18T10:49:37.038Z,1002.46
2017-03-18T10:50:46.580Z,1002.45
2017-03-18T10:51:56.130Z,1002.6
2017-03-18T10:53:05.027Z,1002.42
2017-03-18T10:54:14.577Z,1002.44
2017-03-18T10:55:23.903Z,1002.5
2017-03-18T10:56:33.119Z,1002.51
2017-03-18T10:57:42.340Z,1002.48
2017-03-18T10:58:51.562Z,1002.44
2017-03-18T11:00:01.444Z,1002.44
2017-03-18T11:01:11.233Z,1002.39
2017-03-18T11:02:20.127Z,1002.54
2017-03-18T11:03:29.998Z,1002.41
2017-03-18T11:04:40.194Z,1002.5
2017-03-18T11:05:49.772Z,1002.45
2017-03-18T11:06:59.036Z,1002.44
2017-03-18T11:08:08.256Z,1002.57
2017-03-18T11:09:17.804Z,1002.54
2017-03-18T11:10:27.363Z,1002.61
2017-03-18T11:11:36.588Z,1002.71
2017-03-18T11:12:45.637Z,1002.62
2017-03-18T11:13:55.520Z,1002.59
2017-03-18T11:15:05.765Z,1002.53
2017-03-18T11:16:14.666Z,1002.75
2017-03-18T11:17:23.879Z,1002.76
2017-03-18T11:18:33.201Z,1002.78
2017-03-18T11:19:43.080Z,1002.82
2017-03-18T11:20:52.948Z,1003.01
2017-03-18T11:22:02.490Z,1002.93
2017-03-18T11:23:11.706Z,1002.98
2017-03-18T11:24:21.727Z,1002.93
2017-03-18T11:25:31.273Z,1003.04
2017-03-18T11:26:40.492Z,1003.11
2017-03-18T11:27:49.711Z,1003.03
2017-03-18T11:28:59.581Z,1003.1
2017-03-18T11:30:09.928Z,1003.02
2017-03-18T11:31:19.144Z,1003.08
2017-03-18T11:32:28.364Z,1003.19
2017-03-18T11:33:38.247Z,1003.28
2017-03-18T11:34:47.801Z,1003.2
2017-03-18T11:35:57.728Z,1003.17
2017-03-18T11:37:06.943Z,1003.2
2017-03-18T11:38:16.493Z,1003.25
2017-03-18T11:39:25.717Z,1003.29
2017-03-18T11:40:35.263Z,1003.25
2017-03-18T11:41:44.644Z,1003.4
2017-03-18T11:42:54.227Z,1003.34
2017-03-18T11:44:03.155Z,1003.26
2017-03-18T11:45:12.047Z,1003.27
2017-03-18T11:46:20.994Z,1003.37
2017-03-18T11:47:30.492Z,1003.32
2017-03-18T11:48:40.691Z,1003.35
2017-03-18T11:49:50.255Z,1003.34
2017-03-18T11:51:00.144Z,1003.41
2017-03-18T11:52:09.052Z,1003.35
2017-03-18T11:53:18.338Z,1003.36
2017-03-18T11:54:28.246Z,1003.4
2017-03-18T11:55:38.121Z,1003.3
2017-03-18T11:56:47.338Z,1003.46
2017-03-18T11:57:56.233Z,1003.4
2017-03-18T11:59:05.805Z,1003.52
2017-03-18T12:00:15.689Z,1003.74
2017-03-18T12:01:24.907Z,1003.37
2017-03-18T12:02:34.130Z,1003.43
2017-03-18T12:03:44.035Z,1003.38
2017-03-18T12:04:54.069Z,1003.35
2017-03-18T12:06:03.618Z,1003.35
2017-03-18T12:07:12.507Z,1003.4
2017-03-18T12:08:21.401Z,1003.53
2017-03-18T12:09:30.952Z,1003.56
2017-03-18T12:10:40.971Z,1003.5
2017-03-18T12:11:50.195Z,1003.52
2017-03-18T12:12:59.742Z,1003.44
2017-03-18T12:14:09.299Z,1003.45
2017-03-18T12:15:18.546Z,1003.49
2017-03-18T12:16:27.595Z,1003.49
2017-03-18T12:17:36.814Z,1003.54
2017-03-18T12:18:47.048Z,1003.63
2017-03-18T12:19:56.780Z,1003.51
2017-03-18T12:21:06.004Z,1003.5
2017-03-18T12:22:15.153Z,1003.48
2017-03-18T12:23:24.446Z,1003.69
2017-03-18T12:24:33.998Z,1003.49
2017-03-18T12:25:43.224Z,1003.61
2017-03-18T12:26:52.167Z,1003.74
2017-03-18T12:28:01.540Z,1003.77
2017-03-18T12:29:11.458Z,1003.8
2017-03-18T12:30:21.011Z,1003.58
2017-03-18T12:31:29.909Z,1003.78
2017-03-18T12:32:38.807Z,1003.7
2017-03-18T12:33:49.164Z,1003.75
2017-03-18T12:34:58.430Z,1003.78
2017-03-18T12:36:07.327Z,1003.8
2017-03-18T12:37:16.555Z,1003.78
2017-03-18T12:38:26.463Z,1003.92
2017-03-18T12:39:36.160Z,1003.9
2017-03-18T12:40:45.711Z,1003.85
2017-03-18T12:41:54.605Z,1003.93
2017-03-18T12:43:04.486Z,1003.94
2017-03-18T12:44:14.371Z,1003.96
2017-03-18T12:45:23.971Z,1004.01
2017-03-18T12:46:32.866Z,1003.96
2017-03-18T12:47:41.759Z,1003.98
2017-03-18T12:48:51.309Z,1004.12
2017-03-18T12:50:01.523Z,1003.99
2017-03-18T12:51:10.856Z,1004.15
2017-03-18T12:52:20.436Z,1004.26
2017-03-18T12:53:29.981Z,1004.18
2017-03-18T12:54:40.186Z,1004.04
2017-03-18T12:55:49.419Z,1003.99
2017-03-18T12:56:58.692Z,1003.98
2017-03-18T12:58:08.240Z,1004
2017-03-18T12:59:18.116Z,1004.08
2017-03-18T13:00:28.021Z,1003.99
2017-03-18T13:01:36.917Z,1003.96
2017-03-18T13:02:46.856Z,1004.17
2017-03-18T13:03:56.409Z,1004.04
2017-03-18T13:05:06.291Z,1003.99
2017-03-18T13:06:15.878Z,1004.07
2017-03-18T13:07:24.772Z,1004.1
2017-03-18T13:08:34.374Z,1004.23
2017-03-18T13:09:44.583Z,1004.27
2017-03-18T13:10:54.459Z,1004.14
2017-03-18T13:12:03.679Z,1004.22
2017-03-18T13:13:13.357Z,1004.29
2017-03-18T13:14:23.138Z,1004.27
2017-03-18T13:15:32.734Z,1004.38
2017-03-18T13:16:41.971Z,1004.26
2017-03-18T13:17:51.218Z,1004.32
2017-03-18T13:19:00.441Z,1004.38
2017-03-18T13:20:09.714Z,1004.34
2017-03-18T13:21:19.586Z,1004.31
2017-03-18T13:22:28.485Z,1004.33
2017-03-18T13:23:37.711Z,1004.21
2017-03-18T13:24:47.596Z,1004.29
2017-03-18T13:25:57.330Z,1004.33
2017-03-18T13:27:06.277Z,1004.33
2017-03-18T13:28:15.176Z,1004.22
2017-03-18T13:29:24.077Z,1004.4
2017-03-18T13:30:33.954Z,1004.44
2017-03-18T13:31:43.331Z,1004.42
2017-03-18T13:32:52.230Z,1004.39
2017-03-18T13:34:01.485Z,1004.48
2017-03-18T13:35:11.387Z,1004.41
2017-03-18T13:36:20.394Z,1004.51
2017-03-18T13:37:29.552Z,1004.43
2017-03-18T13:38:40.056Z,1004.47
2017-03-18T13:39:49.937Z,1004.51
2017-03-18T13:40:59.813Z,1004.61
2017-03-18T13:42:09.035Z,1004.46
2017-03-18T13:43:17.979Z,1004.45
2017-03-18T13:44:27.215Z,1004.61
2017-03-18T13:45:37.080Z,1004.57
2017-03-18T13:46:46.303Z,1004.44
2017-03-18T13:47:55.195Z,1004.66
2017-03-18T13:49:04.904Z,1004.63
2017-03-18T13:50:14.576Z,1004.78
2017-03-18T13:51:23.797Z,1004.76
2017-03-18T13:52:33.292Z,1004.96
2017-03-18T13:53:42.910Z,1004.87
2017-03-18T13:54:52.765Z,1004.79
2017-03-18T13:56:02.635Z,1004.9
2017-03-18T13:57:11.550Z,1005.06
2017-03-18T13:58:21.422Z,1005.1
2017-03-18T13:59:30.359Z,1005.03
2017-03-18T14:00:40.158Z,1005.16
2017-03-18T14:01:49.053Z,1005.3
2017-03-18T14:02:57.969Z,1005.17
2017-03-18T14:04:07.211Z,1005.35
2017-03-18T14:05:17.083Z,1005.22
2017-03-18T14:06:26.031Z,1005.29
2017-03-18T14:07:34.924Z,1005.33
2017-03-18T14:08:44.490Z,1005.3
2017-03-18T14:09:54.368Z,1005.36
2017-03-18T14:11:03.921Z,1005.42
2017-03-18T14:12:13.573Z,1005.45
2017-03-18T14:13:22.467Z,1005.61
2017-03-18T14:14:31.692Z,1005.48
2017-03-18T14:15:41.885Z,1005.47
2017-03-18T14:16:51.104Z,1005.45
2017-03-18T14:18:00.474Z,1005.48